createdAt,value
2022-08-23T00:01:52.145Z,50.00
2022-08-23T00:04:30.385Z,50.00
2022-08-23T00:07:06.991Z,50.10
2022-08-23T00:09:36.201Z,50.10
2022-08-23T00:12:11.883Z,50.80
2022-08-23T00:14:44.782Z,50.20
2022-08-23T00:17:33.185Z,50.30
2022-08-23T00:20:02.322Z,50.30
2022-08-23T00:22:30.714Z,50.30
2022-08-23T00:24:59.276Z,50.40
2022-08-23T00:27:27.879Z,50.40
2022-08-23T00:30:00.005Z,50.40
2022-08-23T00:32:32.982Z,50.50
2022-08-23T00:35:02.487Z,50.60
2022-08-23T00:37:32.776Z,51.10
2022-08-23T00:40:01.669Z,50.50
2022-08-23T00:42:53.951Z,50.50
2022-08-23T00:45:46.716Z,50.70
2022-08-23T00:48:17.618Z,50.70
2022-08-23T00:50:55.428Z,50.80
2022-08-23T00:53:27.701Z,51.10
2022-08-23T00:56:05.271Z,50.90
2022-08-23T00:58:33.675Z,50.90
2022-08-23T01:01:04.049Z,50.90
2022-08-23T01:03:38.971Z,50.90
2022-08-23T01:06:14.590Z,51.00
2022-08-23T01:08:49.527Z,51.00
2022-08-23T01:11:25.495Z,50.90
2022-08-23T01:14:00.418Z,51.00
2022-08-23T01:16:37.206Z,51.00
2022-08-23T01:19:16.195Z,51.10
2022-08-23T01:21:51.221Z,51.10
2022-08-23T01:25:05.771Z,51.20
2022-08-23T01:27:14.514Z,51.10
2022-08-23T01:29:43.608Z,51.10
2022-08-23T01:32:14.024Z,51.10
2022-08-23T01:34:45.420Z,51.10
2022-08-23T01:37:22.215Z,51.10
2022-08-23T01:39:53.374Z,51.20
2022-08-23T01:42:21.813Z,51.20
2022-08-23T01:44:50.228Z,51.80
2022-08-23T01:47:19.519Z,51.80
2022-08-23T01:49:47.939Z,51.30
2022-08-23T01:52:17.281Z,51.30
2022-08-23T01:54:45.908Z,51.30
2022-08-23T01:57:15.983Z,51.30
2022-08-23T01:59:44.701Z,51.30
2022-08-23T02:02:13.394Z,51.30
2022-08-23T02:04:41.710Z,51.20
2022-08-23T02:07:10.119Z,51.30
2022-08-23T02:09:39.280Z,51.30
2022-08-23T02:12:09.177Z,51.30
2022-08-23T02:14:42.115Z,51.30
2022-08-23T02:17:18.588Z,51.40
2022-08-23T02:19:47.261Z,51.30
2022-08-23T02:22:16.037Z,51.40
2022-08-23T02:24:48.240Z,51.50
2022-08-23T02:27:18.106Z,51.50
2022-08-23T02:29:51.682Z,51.60
2022-08-23T02:32:21.628Z,51.60
2022-08-23T02:34:51.322Z,51.60
2022-08-23T02:37:33.284Z,51.60
2022-08-23T02:40:02.305Z,51.70
2022-08-23T02:42:31.202Z,51.80
2022-08-23T02:45:02.373Z,51.80
2022-08-23T02:47:32.675Z,51.90
2022-08-23T02:50:13.674Z,51.80
2022-08-23T02:52:42.327Z,51.90
2022-08-23T02:55:11.754Z,51.90
2022-08-23T02:57:40.741Z,51.90
2022-08-23T03:00:16.070Z,51.90
2022-08-23T03:02:45.556Z,52.00
2022-08-23T03:05:16.880Z,51.90
2022-08-23T03:07:46.264Z,52.10
2022-08-23T03:10:16.504Z,52.00
2022-08-23T03:12:52.583Z,52.00
2022-08-23T03:15:22.606Z,52.00
2022-08-23T03:17:51.208Z,52.10
2022-08-23T03:20:20.201Z,52.10
2022-08-23T03:22:54.748Z,52.20
2022-08-23T03:25:26.977Z,52.10
2022-08-23T03:28:05.814Z,52.10
2022-08-23T03:30:37.739Z,52.20
2022-08-23T03:33:07.549Z,52.20
2022-08-23T03:35:36.489Z,52.10
2022-08-23T03:38:05.655Z,52.20
2022-08-23T03:40:34.809Z,52.20
2022-08-23T03:43:03.557Z,52.20
2022-08-23T03:45:32.943Z,52.30
2022-08-23T03:48:03.060Z,52.30
2022-08-23T03:50:34.813Z,52.40
2022-08-23T03:53:03.616Z,52.40
2022-08-23T03:55:32.113Z,52.40
2022-08-23T03:58:01.834Z,52.50
2022-08-23T04:00:30.385Z,52.60
2022-08-23T04:02:58.713Z,52.50
2022-08-23T04:05:29.997Z,52.50
2022-08-23T04:08:10.409Z,52.50
2022-08-23T04:10:41.925Z,52.60
2022-08-23T04:13:11.524Z,52.50
2022-08-23T04:15:40.049Z,52.60
2022-08-23T04:18:11.887Z,52.50
2022-08-23T04:20:41.622Z,52.60
2022-08-23T04:23:10.294Z,52.70
2022-08-23T04:25:49.188Z,52.60
2022-08-23T04:28:19.634Z,52.60
2022-08-23T04:30:48.504Z,52.60
2022-08-23T04:33:18.244Z,52.70
2022-08-23T04:35:49.113Z,52.90
2022-08-23T04:38:25.161Z,52.80
2022-08-23T04:41:15.951Z,52.80
2022-08-23T04:43:47.101Z,52.80
2022-08-23T04:46:17.323Z,52.80
2022-08-23T04:48:48.717Z,52.90
2022-08-23T04:51:20.026Z,53.00
2022-08-23T04:53:48.449Z,53.00
2022-08-23T04:56:46.219Z,53.00
2022-08-23T04:59:21.454Z,53.10
2022-08-23T05:01:51.107Z,53.20
2022-08-23T05:04:19.712Z,53.30
2022-08-23T05:06:49.442Z,53.40
2022-08-23T05:09:20.707Z,53.50
2022-08-23T05:11:50.609Z,53.50
2022-08-23T05:14:20.143Z,53.50
2022-08-23T05:16:48.493Z,53.60
2022-08-23T05:19:16.910Z,53.60
2022-08-23T05:21:52.852Z,53.60
2022-08-23T05:24:25.708Z,53.70
2022-08-23T05:26:54.039Z,53.70
2022-08-23T05:29:22.472Z,53.70
2022-08-23T05:31:52.617Z,53.80
2022-08-23T05:34:23.944Z,53.70
2022-08-23T05:36:56.536Z,53.90
2022-08-23T05:39:37.464Z,54.00
2022-08-23T05:42:14.811Z,54.00
2022-08-23T05:44:45.228Z,54.20
2022-08-23T05:47:16.998Z,54.10
2022-08-23T05:49:52.985Z,54.20
2022-08-23T05:52:23.146Z,54.20
2022-08-23T05:54:51.452Z,54.20
2022-08-23T05:57:38.997Z,54.20
2022-08-23T06:00:13.203Z,54.20
2022-08-23T06:02:47.249Z,54.30
2022-08-23T06:05:16.574Z,54.30
2022-08-23T06:07:49.266Z,54.30
2022-08-23T06:10:20.363Z,54.30
2022-08-23T06:12:53.578Z,54.30
2022-08-23T06:15:22.663Z,54.30
2022-08-23T06:17:51.212Z,54.40
2022-08-23T06:20:19.818Z,54.40
2022-08-23T06:23:07.444Z,54.40
2022-08-23T06:25:38.317Z,54.50
2022-08-23T06:28:26.181Z,54.60
2022-08-23T06:30:56.661Z,54.70
2022-08-23T06:33:34.028Z,54.50
2022-08-23T06:36:31.748Z,54.50
2022-08-23T06:39:17.991Z,54.50
2022-08-23T06:42:34.867Z,54.60
2022-08-23T06:45:03.843Z,54.60
2022-08-23T06:47:43.071Z,54.50
2022-08-23T06:50:12.072Z,54.60
2022-08-23T06:52:59.234Z,54.80
2022-08-23T06:55:38.741Z,54.60
2022-08-23T06:58:19.512Z,54.80
2022-08-23T07:01:34.974Z,54.80
2022-08-23T07:04:11.127Z,54.80
2022-08-23T07:06:58.874Z,54.80
2022-08-23T07:09:27.523Z,54.90
2022-08-23T07:11:57.866Z,54.90
2022-08-23T07:14:26.708Z,55.00
2022-08-23T07:17:00.230Z,55.10
2022-08-23T07:19:31.316Z,55.10
2022-08-23T07:22:01.956Z,55.10
2022-08-23T07:24:33.482Z,55.10
2022-08-23T07:27:08.694Z,55.20
2022-08-23T07:29:43.912Z,55.40
2022-08-23T07:32:12.321Z,55.30
2022-08-23T07:34:40.732Z,55.30
2022-08-23T07:37:11.454Z,55.30
2022-08-23T07:39:44.859Z,55.30
2022-08-23T07:42:23.117Z,55.90
2022-08-23T07:44:54.787Z,55.40
2022-08-23T07:47:25.611Z,55.30
2022-08-23T07:49:56.766Z,55.30
2022-08-23T07:52:25.074Z,55.30
2022-08-23T07:54:53.608Z,55.30
2022-08-23T07:57:40.678Z,55.30
2022-08-23T08:00:29.372Z,56.00
2022-08-23T08:03:16.278Z,55.40
2022-08-23T08:06:10.048Z,55.70
2022-08-23T08:08:38.571Z,55.70
2022-08-23T08:11:07.821Z,55.50
2022-08-23T08:13:39.168Z,55.60
2022-08-23T08:16:09.231Z,55.80
2022-08-23T08:18:41.277Z,55.70
2022-08-23T08:21:30.187Z,55.70
2022-08-23T08:24:18.468Z,55.80
2022-08-23T08:26:53.320Z,55.80
2022-08-23T08:29:23.336Z,55.80
2022-08-23T08:31:54.448Z,55.90
2022-08-23T08:34:23.600Z,55.80
2022-08-23T08:36:55.231Z,55.90
2022-08-23T08:39:31.125Z,55.90
2022-08-23T08:42:20.849Z,56.00
2022-08-23T08:44:56.980Z,56.10
2022-08-23T08:47:36.788Z,56.20
2022-08-23T08:50:19.753Z,56.10
2022-08-23T08:52:54.328Z,56.30
2022-08-23T08:55:46.239Z,56.20
2022-08-23T08:58:26.015Z,56.30
2022-08-23T09:00:58.800Z,56.40
2022-08-23T09:03:34.381Z,56.20
2022-08-23T09:06:14.020Z,56.40
2022-08-23T09:08:58.859Z,56.40
2022-08-23T09:11:42.521Z,56.50
2022-08-23T09:14:38.997Z,56.70
2022-08-23T09:17:20.806Z,56.60
2022-08-23T09:19:54.176Z,56.50
2022-08-23T09:22:31.731Z,56.50
2022-08-23T09:25:00.333Z,56.70
2022-08-23T09:27:37.937Z,56.60
2022-08-23T09:30:09.649Z,56.60
2022-08-23T09:32:44.055Z,56.40
2022-08-23T09:35:19.774Z,56.40
2022-08-23T09:38:00.557Z,56.20
2022-08-23T09:40:38.925Z,56.20
2022-08-23T09:43:17.018Z,56.20
2022-08-23T09:46:00.925Z,56.20
2022-08-23T09:48:40.023Z,56.30
2022-08-23T09:51:23.262Z,56.20
2022-08-23T09:54:05.901Z,56.10
2022-08-23T09:56:40.360Z,55.80
2022-08-23T09:59:36.367Z,55.50
2022-08-23T10:02:20.422Z,55.30
2022-08-23T10:05:01.992Z,55.30
2022-08-23T10:07:38.386Z,55.50
2022-08-23T10:10:23.329Z,55.40
2022-08-23T10:12:54.358Z,55.80
2022-08-23T10:15:36.289Z,54.80
2022-08-23T10:18:12.746Z,54.60
2022-08-23T10:20:52.388Z,54.40
2022-08-23T10:23:38.168Z,54.20
2022-08-23T10:26:12.701Z,54.20
2022-08-23T10:29:09.792Z,54.30
2022-08-23T10:31:49.256Z,54.30
2022-08-23T10:34:50.375Z,54.20
2022-08-23T10:37:39.514Z,54.00
2022-08-23T10:40:17.717Z,53.70
2022-08-23T10:43:01.717Z,54.00
2022-08-23T10:45:36.520Z,53.80
2022-08-23T10:48:27.321Z,53.80
2022-08-23T10:51:01.264Z,54.00
2022-08-23T10:53:39.244Z,53.90
2022-08-23T10:56:08.229Z,53.50
2022-08-23T10:58:47.362Z,53.60
2022-08-23T11:01:22.728Z,53.10
2022-08-23T11:04:03.635Z,52.90
2022-08-23T11:06:48.944Z,52.70
2022-08-23T11:09:58.315Z,52.50
2022-08-23T11:12:35.748Z,51.80
2022-08-23T11:15:20.238Z,52.20
2022-08-23T11:18:07.948Z,51.60
2022-08-23T11:21:09.938Z,51.10
2022-08-23T11:23:55.943Z,50.70
2022-08-23T11:27:08.953Z,50.90
2022-08-23T11:29:43.933Z,50.30
2022-08-23T11:32:41.971Z,50.50
2022-08-23T11:35:43.137Z,50.00
2022-08-23T11:38:14.701Z,50.70
2022-08-23T11:41:14.528Z,50.20
2022-08-23T11:43:46.534Z,49.50
2022-08-23T11:46:35.812Z,49.90
2022-08-23T11:49:35.620Z,49.50
2022-08-23T11:52:17.803Z,49.30
2022-08-23T11:55:17.500Z,49.30
2022-08-23T11:58:01.426Z,49.00
2022-08-23T12:01:06.288Z,49.30
2022-08-23T12:03:44.243Z,48.80
2022-08-23T12:06:40.468Z,48.90
2022-08-23T12:09:23.264Z,48.90
2022-08-23T12:12:14.827Z,49.00
2022-08-23T12:14:54.984Z,48.60
2022-08-23T12:18:13.220Z,48.60
2022-08-23T12:20:43.292Z,48.70
2022-08-23T12:23:47.886Z,48.90
2022-08-23T12:26:28.597Z,48.40
2022-08-23T12:29:04.741Z,48.30
2022-08-23T12:31:41.450Z,48.60
2022-08-23T12:34:25.047Z,49.20
2022-08-23T12:37:09.486Z,48.40
2022-08-23T12:39:42.177Z,48.50
2022-08-23T12:42:15.796Z,48.40
2022-08-23T12:44:46.339Z,48.20
2022-08-23T12:47:18.680Z,48.30
2022-08-23T12:50:00.492Z,48.20
2022-08-23T12:52:32.665Z,47.70
2022-08-23T12:55:01.205Z,48.30
2022-08-23T12:57:36.684Z,48.50
2022-08-23T13:00:25.789Z,48.40
2022-08-23T13:03:00.128Z,48.00
2022-08-23T13:05:46.155Z,48.20
2022-08-23T13:08:18.464Z,48.00
2022-08-23T13:10:50.480Z,48.40
2022-08-23T13:13:25.405Z,48.40
2022-08-23T13:15:56.462Z,48.30
2022-08-23T13:18:34.660Z,48.20
2022-08-23T13:21:27.609Z,47.70
2022-08-23T13:24:00.734Z,47.70
2022-08-23T13:26:38.789Z,48.00
2022-08-23T13:29:11.729Z,48.10
2022-08-23T13:32:00.566Z,48.40
2022-08-23T13:34:48.905Z,48.40
2022-08-23T13:37:25.443Z,48.60
2022-08-23T13:39:58.560Z,48.90
2022-08-23T13:42:33.783Z,49.20
2022-08-23T13:45:10.456Z,49.20
2022-08-23T13:47:39.106Z,49.10
2022-08-23T13:50:18.302Z,49.00
2022-08-23T13:53:13.449Z,49.00
2022-08-23T13:55:43.823Z,49.20
2022-08-23T13:58:14.279Z,49.10
2022-08-23T14:00:54.930Z,49.10
2022-08-23T14:03:24.461Z,49.00
2022-08-23T14:05:53.870Z,49.20
2022-08-23T14:08:23.551Z,49.20
2022-08-23T14:10:52.384Z,49.00
2022-08-23T14:13:22.952Z,49.00
2022-08-23T14:15:56.656Z,49.00
2022-08-23T14:18:26.217Z,48.40
2022-08-23T14:20:54.568Z,48.30
2022-08-23T14:23:24.363Z,48.40
2022-08-23T14:25:56.699Z,48.40
2022-08-23T14:28:31.311Z,48.60
2022-08-23T14:30:59.914Z,48.40
2022-08-23T14:33:28.356Z,48.60
2022-08-23T14:35:57.331Z,48.40
2022-08-23T14:38:27.095Z,48.90
2022-08-23T14:40:59.078Z,48.30
2022-08-23T14:43:28.784Z,48.20
2022-08-23T14:45:58.565Z,48.00
2022-08-23T14:48:26.910Z,48.00
2022-08-23T14:50:56.846Z,48.10
2022-08-23T14:53:30.477Z,48.10
2022-08-23T14:56:20.603Z,48.10
2022-08-23T14:58:47.173Z,48.10
2022-08-23T15:01:16.590Z,48.10
2022-08-23T15:03:45.453Z,48.40
2022-08-23T15:06:15.932Z,48.20
2022-08-23T15:08:46.309Z,48.20
2022-08-23T15:14:04.130Z,48.10
2022-08-23T15:16:33.500Z,48.30
2022-08-23T15:19:02.257Z,48.30
2022-08-23T15:21:30.641Z,48.20
2022-08-23T15:24:00.320Z,48.30
2022-08-23T15:26:31.286Z,48.30
2022-08-23T15:29:00.142Z,48.20
2022-08-23T15:31:29.900Z,48.30
2022-08-23T15:33:58.713Z,48.40
2022-08-23T15:36:28.097Z,48.40
2022-08-23T15:38:56.489Z,48.50
2022-08-23T15:41:26.218Z,48.40
2022-08-23T15:43:54.579Z,48.30
2022-08-23T15:46:25.288Z,48.30
2022-08-23T15:48:59.283Z,48.40
2022-08-23T15:51:27.778Z,48.40
2022-08-23T15:53:57.694Z,48.50
2022-08-23T15:56:36.805Z,48.50
2022-08-23T15:59:06.052Z,48.50
2022-08-23T16:01:35.681Z,48.50
2022-08-23T16:04:04.666Z,48.50
2022-08-23T16:06:36.523Z,48.50
2022-08-23T16:09:07.632Z,48.50
2022-08-23T16:11:37.550Z,48.50
2022-08-23T16:14:05.867Z,48.50
2022-08-23T16:16:40.097Z,48.50
2022-08-23T16:19:09.888Z,48.20
2022-08-23T16:21:38.523Z,48.40
2022-08-23T16:24:08.342Z,48.30
2022-08-23T16:26:42.006Z,48.30
2022-08-23T16:29:13.422Z,48.30
2022-08-23T16:31:43.115Z,48.20
2022-08-23T16:34:15.237Z,48.30
2022-08-23T16:36:48.156Z,48.30
2022-08-23T16:39:18.043Z,48.30
2022-08-23T16:41:48.084Z,48.30
2022-08-23T16:44:18.636Z,48.30
2022-08-23T16:46:47.041Z,48.30
2022-08-23T16:49:18.531Z,48.30
2022-08-23T16:51:47.578Z,48.30
2022-08-23T16:54:17.861Z,48.30
2022-08-23T16:56:47.708Z,48.40
2022-08-23T16:59:16.243Z,48.30
2022-08-23T17:01:47.581Z,48.30
2022-08-23T17:04:16.451Z,48.30
2022-08-23T17:06:45.590Z,48.30
2022-08-23T17:09:14.615Z,48.30
2022-08-23T17:11:44.965Z,48.30
2022-08-23T17:14:14.911Z,48.20
2022-08-23T17:16:44.188Z,48.20
2022-08-23T17:19:13.759Z,48.30
2022-08-23T17:21:43.378Z,48.30
2022-08-23T17:24:12.822Z,48.20
2022-08-23T17:26:41.180Z,48.20
2022-08-23T17:29:10.219Z,48.20
2022-08-23T17:31:40.349Z,48.30
2022-08-23T17:34:08.827Z,48.30
2022-08-23T17:36:42.976Z,48.30
2022-08-23T17:39:21.293Z,48.30
2022-08-23T17:41:49.823Z,48.30
2022-08-23T17:44:20.324Z,48.30
2022-08-23T17:46:50.626Z,48.30
2022-08-23T17:49:19.986Z,48.20
2022-08-23T17:51:49.170Z,48.10
2022-08-23T17:54:18.500Z,48.20
2022-08-23T17:56:50.200Z,48.10
2022-08-23T17:59:19.745Z,48.10
2022-08-23T18:01:49.530Z,48.10
2022-08-23T18:04:18.094Z,48.20
2022-08-23T18:06:46.875Z,48.20
2022-08-23T18:09:15.824Z,48.20
2022-08-23T18:11:44.565Z,48.10
2022-08-23T18:14:13.181Z,48.20
2022-08-23T18:16:44.135Z,48.20
2022-08-23T18:19:15.381Z,48.20
2022-08-23T18:21:45.272Z,48.30
2022-08-23T18:24:14.873Z,48.30
2022-08-23T18:27:01.953Z,48.40
2022-08-23T18:29:33.889Z,48.40
2022-08-23T18:32:02.475Z,48.50
2022-08-23T18:34:32.262Z,48.50
2022-08-23T18:37:01.164Z,48.60
2022-08-23T18:39:32.189Z,48.70
2022-08-23T18:42:01.508Z,48.70
2022-08-23T18:44:30.186Z,48.80
2022-08-23T18:46:59.876Z,48.80
2022-08-23T18:49:28.255Z,48.70
2022-08-23T18:51:57.919Z,48.80
2022-08-23T18:54:28.046Z,48.70
2022-08-23T18:56:58.184Z,48.90
2022-08-23T18:59:26.499Z,48.90
2022-08-23T19:01:55.173Z,48.90
2022-08-23T19:04:24.040Z,49.00
2022-08-23T19:06:54.109Z,49.00
2022-08-23T19:09:24.217Z,49.10
2022-08-23T19:11:52.893Z,49.20
2022-08-23T19:14:21.270Z,49.30
2022-08-23T19:16:49.649Z,49.30
2022-08-23T19:19:18.803Z,49.30
2022-08-23T19:21:47.231Z,49.50
2022-08-23T19:24:15.637Z,49.50
2022-08-23T19:26:48.939Z,49.60
2022-08-23T19:29:20.597Z,49.60
2022-08-23T19:31:49.143Z,49.60
2022-08-23T19:34:19.156Z,49.60
2022-08-23T19:36:53.586Z,49.70
2022-08-23T19:39:27.789Z,49.80
2022-08-23T19:41:57.771Z,49.80
2022-08-23T19:44:26.185Z,49.90
2022-08-23T19:46:56.300Z,49.90
2022-08-23T19:49:25.153Z,50.00
2022-08-23T19:51:53.575Z,50.00
2022-08-23T19:54:22.010Z,50.10
2022-08-23T19:56:53.131Z,50.10
2022-08-23T19:59:26.058Z,50.20
2022-08-23T20:01:55.685Z,50.20
2022-08-23T20:04:26.914Z,50.30
2022-08-23T20:06:55.544Z,50.30
2022-08-23T20:09:25.593Z,50.30
2022-08-23T20:11:54.095Z,50.40
2022-08-23T20:14:25.941Z,50.40
2022-08-23T20:16:55.316Z,50.40
2022-08-23T20:19:24.117Z,50.40
2022-08-23T20:22:15.690Z,50.60
2022-08-23T20:24:51.519Z,50.50
2022-08-23T20:27:28.311Z,50.60
2022-08-23T20:30:01.821Z,50.60
2022-08-23T20:32:31.432Z,50.70
2022-08-23T20:35:00.501Z,50.70
2022-08-23T20:37:29.255Z,50.70
2022-08-23T20:39:58.558Z,51.40
2022-08-23T20:42:28.216Z,50.90
2022-08-23T20:44:57.079Z,50.90
2022-08-23T20:47:26.931Z,51.00
2022-08-23T20:49:55.611Z,51.00
2022-08-23T20:52:24.176Z,51.00
2022-08-23T20:54:53.544Z,51.00
2022-08-23T20:57:22.011Z,51.00
2022-08-23T20:59:50.299Z,51.00
2022-08-23T21:02:18.629Z,51.10
2022-08-23T21:04:48.781Z,51.10
2022-08-23T21:07:17.376Z,51.20
2022-08-23T21:09:46.573Z,51.10
2022-08-23T21:12:15.192Z,51.20
2022-08-23T21:14:43.627Z,51.20
2022-08-23T21:17:12.265Z,51.30
2022-08-23T21:19:41.086Z,51.30
2022-08-23T21:22:11.116Z,51.30
2022-08-23T21:24:39.624Z,51.40
2022-08-23T21:27:09.594Z,51.40
2022-08-23T21:29:38.780Z,51.40
2022-08-23T21:32:07.617Z,51.40
2022-08-23T21:34:36.120Z,51.40
2022-08-23T21:37:04.504Z,51.40
2022-08-23T21:39:34.385Z,51.40
2022-08-23T21:42:02.776Z,51.50
2022-08-23T21:44:43.612Z,51.50
2022-08-23T21:47:12.217Z,51.60
2022-08-23T21:49:40.920Z,51.70
2022-08-23T21:52:09.312Z,51.60
2022-08-23T21:54:43.264Z,51.70
2022-08-23T21:57:12.080Z,51.70
2022-08-23T21:59:41.369Z,51.70
2022-08-23T22:02:09.968Z,51.70
2022-08-23T22:04:38.390Z,51.70
2022-08-23T22:07:06.806Z,51.60
2022-08-23T22:09:35.100Z,51.70
2022-08-23T22:12:06.479Z,51.90
2022-08-23T22:14:35.362Z,51.90
2022-08-23T22:17:04.041Z,51.80
2022-08-23T22:19:32.335Z,51.80
2022-08-23T22:22:01.111Z,51.90
2022-08-23T22:24:29.609Z,51.80
2022-08-23T22:26:57.959Z,51.80
2022-08-23T22:29:27.631Z,51.90
2022-08-23T22:31:56.425Z,52.00
2022-08-23T22:34:25.437Z,51.90
2022-08-23T22:36:56.136Z,51.90
2022-08-23T22:39:25.163Z,52.00
2022-08-23T22:41:54.229Z,52.00
2022-08-23T22:44:22.705Z,52.00
2022-08-23T22:46:52.725Z,52.00
2022-08-23T22:49:21.020Z,52.10
2022-08-23T22:51:55.011Z,52.10
2022-08-23T22:54:25.094Z,52.10
2022-08-23T22:56:54.657Z,52.10
2022-08-23T22:59:27.687Z,52.10
2022-08-23T23:02:04.212Z,52.10
2022-08-23T23:04:34.739Z,52.10
2022-08-23T23:07:03.326Z,52.20
2022-08-23T23:09:31.876Z,52.10
2022-08-23T23:12:00.287Z,52.10
2022-08-23T23:14:28.955Z,52.20
2022-08-23T23:16:57.392Z,52.20
2022-08-23T23:19:45.731Z,52.10
2022-08-23T23:22:14.657Z,52.20
2022-08-23T23:24:42.963Z,52.20
2022-08-23T23:27:11.289Z,52.20
2022-08-23T23:29:39.978Z,52.20
2022-08-23T23:32:08.495Z,52.30
2022-08-23T23:34:38.147Z,52.30
2022-08-23T23:37:06.724Z,52.40
2022-08-23T23:39:35.228Z,52.30
2022-08-23T23:42:03.522Z,52.30
2022-08-23T23:44:32.152Z,52.40
2022-08-23T23:47:01.859Z,52.40
2022-08-23T23:49:33.001Z,52.40
2022-08-23T23:52:07.274Z,52.40
2022-08-23T23:54:38.573Z,52.50
2022-08-23T23:57:08.021Z,52.50
2022-08-23T23:59:36.991Z,52.50
